sensor_id;sensor_type;location;lat;lon;timestamp;temperature;humidity
2477;DHT22;1249;51.270;6.756;2023-04-24T00:00:01;16.00;99.90
2477;DHT22;1249;51.270;6.756;2023-04-24T00:02:26;16.00;99.90
2477;DHT22;1249;51.270;6.756;2023-04-24T00:04:52;15.90;99.90
2477;DHT22;1249;51.270;6.756;2023-04-24T00:07:17;15.90;99.90
2477;DHT22;1249;51.270;6.756;2023-04-24T00:09:45;16.00;99.90
2477;DHT22;1249;51.270;6.756;2023-04-24T00:12:11;15.90;99.90
2477;DHT22;1249;51.270;6.756;2023-04-24T00:14:36;15.90;99.90
2477;DHT22;1249;51.270;6.756;2023-04-24T00:17:02;15.90;99.90
2477;DHT22;1249;51.270;6.756;2023-04-24T00:19:28;15.90;99.90
2477;DHT22;1249;51.270;6.756;2023-04-24T00:21:54;15.90;99.90
2477;DHT22;1249;51.270;6.756;2023-04-24T00:24:20;15.90;99.90
2477;DHT22;1249;51.270;6.756;2023-04-24T00:26:46;15.80;99.90
2477;DHT22;1249;51.270;6.756;2023-04-24T00:29:12;15.70;99.90
2477;DHT22;1249;51.270;6.756;2023-04-24T00:31:37;15.70;99.90
2477;DHT22;1249;51.270;6.756;2023-04-24T00:34:03;15.70;99.90
2477;DHT22;1249;51.270;6.756;2023-04-24T00:36:30;15.60;99.90
2477;DHT22;1249;51.270;6.756;2023-04-24T00:38:56;15.70;99.90
2477;DHT22;1249;51.270;6.756;2023-04-24T00:41:22;15.50;99.90
2477;DHT22;1249;51.270;6.756;2023-04-24T00:43:48;15.50;99.90
2477;DHT22;1249;51.270;6.756;2023-04-24T00:46:14;15.50;99.90
2477;DHT22;1249;51.270;6.756;2023-04-24T00:48:40;15.50;99.90
2477;DHT22;1249;51.270;6.756;2023-04-24T00:51:06;15.50;99.90
2477;DHT22;1249;51.270;6.756;2023-04-24T00:53:31;15.50;99.90
2477;DHT22;1249;51.270;6.756;2023-04-24T00:55:58;15.50;99.90
2477;DHT22;1249;51.270;6.756;2023-04-24T00:58:24;15.50;99.90
2477;DHT22;1249;51.270;6.756;2023-04-24T01:00:51;15.60;99.90
2477;DHT22;1249;51.270;6.756;2023-04-24T01:03:22;15.50;99.90
2477;DHT22;1249;51.270;6.756;2023-04-24T01:05:49;15.50;99.90
2477;DHT22;1249;51.270;6.756;2023-04-24T01:08:15;15.50;99.90
2477;DHT22;1249;51.270;6.756;2023-04-24T01:10:41;15.40;99.90
2477;DHT22;1249;51.270;6.756;2023-04-24T01:13:08;15.40;99.90
2477;DHT22;1249;51.270;6.756;2023-04-24T01:15:36;15.40;99.90
2477;DHT22;1249;51.270;6.756;2023-04-24T01:18:03;15.40;99.90
2477;DHT22;1249;51.270;6.756;2023-04-24T01:20:29;15.30;99.90
2477;DHT22;1249;51.270;6.756;2023-04-24T01:22:55;15.40;99.90
2477;DHT22;1249;51.270;6.756;2023-04-24T01:25:22;15.40;99.90
2477;DHT22;1249;51.270;6.756;2023-04-24T01:27:47;15.30;99.90
2477;DHT22;1249;51.270;6.756;2023-04-24T01:30:13;15.40;99.90
2477;DHT22;1249;51.270;6.756;2023-04-24T01:32:40;15.20;99.90
2477;DHT22;1249;51.270;6.756;2023-04-24T01:35:07;15.20;99.90
2477;DHT22;1249;51.270;6.756;2023-04-24T01:37:33;15.10;99.90
2477;DHT22;1249;51.270;6.756;2023-04-24T01:39:59;15.10;99.90
2477;DHT22;1249;51.270;6.756;2023-04-24T01:42:25;15.10;99.90
2477;DHT22;1249;51.270;6.756;2023-04-24T01:44:50;15.00;99.90
2477;DHT22;1249;51.270;6.756;2023-04-24T01:47:16;15.00;99.90
2477;DHT22;1249;51.270;6.756;2023-04-24T01:49:42;15.10;99.90
2477;DHT22;1249;51.270;6.756;2023-04-24T01:52:08;15.00;99.90
2477;DHT22;1249;51.270;6.756;2023-04-24T01:54:33;15.00;99.90
2477;DHT22;1249;51.270;6.756;2023-04-24T01:56:59;15.00;99.90
2477;DHT22;1249;51.270;6.756;2023-04-24T01:59:27;14.90;99.90
2477;DHT22;1249;51.270;6.756;2023-04-24T02:01:53;14.90;99.90
2477;DHT22;1249;51.270;6.756;2023-04-24T02:04:18;14.90;99.90
2477;DHT22;1249;51.270;6.756;2023-04-24T02:06:44;14.90;99.90
2477;DHT22;1249;51.270;6.756;2023-04-24T02:09:09;14.90;99.90
2477;DHT22;1249;51.270;6.756;2023-04-24T02:11:36;14.90;99.90
2477;DHT22;1249;51.270;6.756;2023-04-24T02:14:01;14.90;99.90
2477;DHT22;1249;51.270;6.756;2023-04-24T02:16:28;14.90;99.90
2477;DHT22;1249;51.270;6.756;2023-04-24T02:18:57;14.90;99.90
2477;DHT22;1249;51.270;6.756;2023-04-24T02:21:23;14.90;99.90
2477;DHT22;1249;51.270;6.756;2023-04-24T02:23:48;14.90;99.90
2477;DHT22;1249;51.270;6.756;2023-04-24T02:26:14;14.90;99.90
2477;DHT22;1249;51.270;6.756;2023-04-24T02:28:40;14.90;99.90
2477;DHT22;1249;51.270;6.756;2023-04-24T02:31:06;14.90;99.90
2477;DHT22;1249;51.270;6.756;2023-04-24T02:33:31;14.90;99.90
2477;DHT22;1249;51.270;6.756;2023-04-24T02:35:57;14.80;99.90
2477;DHT22;1249;51.270;6.756;2023-04-24T02:38:23;14.80;99.90
2477;DHT22;1249;51.270;6.756;2023-04-24T02:40:48;14.80;99.90
2477;DHT22;1249;51.270;6.756;2023-04-24T02:43:14;14.80;99.90
2477;DHT22;1249;51.270;6.756;2023-04-24T02:45:39;14.80;99.90
2477;DHT22;1249;51.270;6.756;2023-04-24T02:48:05;14.80;99.90
2477;DHT22;1249;51.270;6.756;2023-04-24T02:50:30;14.80;99.90
2477;DHT22;1249;51.270;6.756;2023-04-24T02:52:57;14.90;99.90
2477;DHT22;1249;51.270;6.756;2023-04-24T02:55:22;14.80;99.90
2477;DHT22;1249;51.270;6.756;2023-04-24T02:57:48;14.80;99.90
2477;DHT22;1249;51.270;6.756;2023-04-24T03:00:13;14.80;99.90
2477;DHT22;1249;51.270;6.756;2023-04-24T03:02:39;14.80;99.90
2477;DHT22;1249;51.270;6.756;2023-04-24T03:05:05;14.80;99.90
2477;DHT22;1249;51.270;6.756;2023-04-24T03:07:31;14.80;99.90
2477;DHT22;1249;51.270;6.756;2023-04-24T03:09:57;14.80;99.90
2477;DHT22;1249;51.270;6.756;2023-04-24T03:12:23;14.80;99.90
2477;DHT22;1249;51.270;6.756;2023-04-24T03:14:49;14.80;99.90
2477;DHT22;1249;51.270;6.756;2023-04-24T03:17:15;14.80;99.90
2477;DHT22;1249;51.270;6.756;2023-04-24T03:19:40;14.70;99.90
2477;DHT22;1249;51.270;6.756;2023-04-24T03:22:06;14.70;99.90
2477;DHT22;1249;51.270;6.756;2023-04-24T03:24:31;14.70;99.90
2477;DHT22;1249;51.270;6.756;2023-04-24T03:26:57;14.70;99.90
2477;DHT22;1249;51.270;6.756;2023-04-24T03:29:23;14.80;99.90
2477;DHT22;1249;51.270;6.756;2023-04-24T03:31:48;14.70;99.90
2477;DHT22;1249;51.270;6.756;2023-04-24T03:34:14;14.70;99.90
2477;DHT22;1249;51.270;6.756;2023-04-24T03:36:39;14.70;99.90
2477;DHT22;1249;51.270;6.756;2023-04-24T03:39:05;14.70;99.90
2477;DHT22;1249;51.270;6.756;2023-04-24T03:41:30;14.70;99.90
2477;DHT22;1249;51.270;6.756;2023-04-24T03:43:56;14.70;99.90
2477;DHT22;1249;51.270;6.756;2023-04-24T03:46:22;14.70;99.90
2477;DHT22;1249;51.270;6.756;2023-04-24T03:48:47;14.70;99.90
2477;DHT22;1249;51.270;6.756;2023-04-24T03:51:13;14.70;99.90
2477;DHT22;1249;51.270;6.756;2023-04-24T03:53:38;14.60;99.90
2477;DHT22;1249;51.270;6.756;2023-04-24T03:56:04;14.60;99.90
2477;DHT22;1249;51.270;6.756;2023-04-24T03:58:30;14.60;99.90
2477;DHT22;1249;51.270;6.756;2023-04-24T04:00:55;14.70;99.90
2477;DHT22;1249;51.270;6.756;2023-04-24T04:03:23;14.60;99.90
2477;DHT22;1249;51.270;6.756;2023-04-24T04:05:49;14.60;99.90
2477;DHT22;1249;51.270;6.756;2023-04-24T04:08:14;14.60;99.90
2477;DHT22;1249;51.270;6.756;2023-04-24T04:10:40;14.60;99.90
2477;DHT22;1249;51.270;6.756;2023-04-24T04:13:05;14.60;99.90
2477;DHT22;1249;51.270;6.756;2023-04-24T04:15:31;14.60;99.90
2477;DHT22;1249;51.270;6.756;2023-04-24T04:17:57;14.60;99.90
2477;DHT22;1249;51.270;6.756;2023-04-24T04:20:23;14.60;99.90
2477;DHT22;1249;51.270;6.756;2023-04-24T04:22:48;14.50;99.90
2477;DHT22;1249;51.270;6.756;2023-04-24T04:25:14;14.50;99.90
2477;DHT22;1249;51.270;6.756;2023-04-24T04:27:39;14.50;99.90
2477;DHT22;1249;51.270;6.756;2023-04-24T04:30:07;14.50;99.90
2477;DHT22;1249;51.270;6.756;2023-04-24T04:32:34;14.50;99.90
2477;DHT22;1249;51.270;6.756;2023-04-24T04:35:03;14.50;99.90
2477;DHT22;1249;51.270;6.756;2023-04-24T04:37:30;14.50;99.90
2477;DHT22;1249;51.270;6.756;2023-04-24T04:39:57;14.60;99.90
2477;DHT22;1249;51.270;6.756;2023-04-24T04:42:26;14.50;99.90
2477;DHT22;1249;51.270;6.756;2023-04-24T04:44:53;14.50;99.90
2477;DHT22;1249;51.270;6.756;2023-04-24T04:47:20;14.50;99.90
2477;DHT22;1249;51.270;6.756;2023-04-24T04:49:48;14.50;99.90
2477;DHT22;1249;51.270;6.756;2023-04-24T04:52:13;14.50;99.90
2477;DHT22;1249;51.270;6.756;2023-04-24T04:54:39;14.40;99.90
2477;DHT22;1249;51.270;6.756;2023-04-24T04:57:05;14.40;99.90
2477;DHT22;1249;51.270;6.756;2023-04-24T04:59:31;14.40;99.90
2477;DHT22;1249;51.270;6.756;2023-04-24T05:01:56;14.40;99.90
2477;DHT22;1249;51.270;6.756;2023-04-24T05:04:22;14.40;99.90
2477;DHT22;1249;51.270;6.756;2023-04-24T05:06:47;14.30;99.90
2477;DHT22;1249;51.270;6.756;2023-04-24T05:09:13;14.30;99.90
2477;DHT22;1249;51.270;6.756;2023-04-24T05:11:38;14.30;99.90
2477;DHT22;1249;51.270;6.756;2023-04-24T05:14:04;14.30;99.90
2477;DHT22;1249;51.270;6.756;2023-04-24T05:16:29;14.30;99.90
2477;DHT22;1249;51.270;6.756;2023-04-24T05:18:56;14.20;99.90
2477;DHT22;1249;51.270;6.756;2023-04-24T05:21:22;14.20;99.90
2477;DHT22;1249;51.270;6.756;2023-04-24T05:23:47;14.20;99.90
2477;DHT22;1249;51.270;6.756;2023-04-24T05:26:13;14.20;99.90
2477;DHT22;1249;51.270;6.756;2023-04-24T05:28:39;14.20;99.90
2477;DHT22;1249;51.270;6.756;2023-04-24T05:31:06;14.10;99.90
2477;DHT22;1249;51.270;6.756;2023-04-24T05:33:32;14.20;99.90
2477;DHT22;1249;51.270;6.756;2023-04-24T05:35:57;14.10;99.90
2477;DHT22;1249;51.270;6.756;2023-04-24T05:38:24;14.20;99.90
2477;DHT22;1249;51.270;6.756;2023-04-24T05:41:04;14.10;99.90
2477;DHT22;1249;51.270;6.756;2023-04-24T05:43:30;14.10;99.90
2477;DHT22;1249;51.270;6.756;2023-04-24T05:45:55;14.20;99.90
2477;DHT22;1249;51.270;6.756;2023-04-24T05:50:49;14.80;99.90
2477;DHT22;1249;51.270;6.756;2023-04-24T05:53:14;15.00;99.90
2477;DHT22;1249;51.270;6.756;2023-04-24T05:55:40;15.10;99.90
2477;DHT22;1249;51.270;6.756;2023-04-24T05:58:06;15.30;99.90
2477;DHT22;1249;51.270;6.756;2023-04-24T06:00:32;15.40;99.90
2477;DHT22;1249;51.270;6.756;2023-04-24T06:02:59;15.50;99.90
2477;DHT22;1249;51.270;6.756;2023-04-24T06:05:24;15.60;99.90
2477;DHT22;1249;51.270;6.756;2023-04-24T06:07:50;15.70;99.90
2477;DHT22;1249;51.270;6.756;2023-04-24T06:10:16;15.80;99.90
2477;DHT22;1249;51.270;6.756;2023-04-24T06:12:42;15.90;99.90
2477;DHT22;1249;51.270;6.756;2023-04-24T06:15:07;16.00;99.90
2477;DHT22;1249;51.270;6.756;2023-04-24T06:17:34;16.00;99.90
2477;DHT22;1249;51.270;6.756;2023-04-24T06:19:59;16.00;99.90
2477;DHT22;1249;51.270;6.756;2023-04-24T06:22:25;16.00;99.90
2477;DHT22;1249;51.270;6.756;2023-04-24T06:24:50;16.10;99.90
2477;DHT22;1249;51.270;6.756;2023-04-24T06:27:16;16.00;99.90
2477;DHT22;1249;51.270;6.756;2023-04-24T06:29:41;16.10;99.90
2477;DHT22;1249;51.270;6.756;2023-04-24T06:32:07;16.10;99.90
2477;DHT22;1249;51.270;6.756;2023-04-24T06:34:33;16.10;99.90
2477;DHT22;1249;51.270;6.756;2023-04-24T06:36:59;16.10;99.90
2477;DHT22;1249;51.270;6.756;2023-04-24T06:39:25;16.10;99.90
2477;DHT22;1249;51.270;6.756;2023-04-24T06:41:51;16.10;99.90
2477;DHT22;1249;51.270;6.756;2023-04-24T06:44:16;16.10;99.90
2477;DHT22;1249;51.270;6.756;2023-04-24T06:46:42;16.20;99.90
2477;DHT22;1249;51.270;6.756;2023-04-24T06:49:07;16.20;99.90
2477;DHT22;1249;51.270;6.756;2023-04-24T06:51:33;16.20;99.90
2477;DHT22;1249;51.270;6.756;2023-04-24T06:53:59;16.20;99.90
2477;DHT22;1249;51.270;6.756;2023-04-24T06:56:25;16.30;99.90
2477;DHT22;1249;51.270;6.756;2023-04-24T06:58:51;16.30;99.90
2477;DHT22;1249;51.270;6.756;2023-04-24T07:01:17;16.40;99.90
2477;DHT22;1249;51.270;6.756;2023-04-24T07:03:42;16.40;99.90
2477;DHT22;1249;51.270;6.756;2023-04-24T07:06:09;16.50;99.90
2477;DHT22;1249;51.270;6.756;2023-04-24T07:08:38;16.50;99.90
2477;DHT22;1249;51.270;6.756;2023-04-24T07:11:04;16.60;99.90
2477;DHT22;1249;51.270;6.756;2023-04-24T07:13:29;16.50;99.90
2477;DHT22;1249;51.270;6.756;2023-04-24T07:15:55;16.60;99.90
2477;DHT22;1249;51.270;6.756;2023-04-24T07:18:22;16.60;99.90
2477;DHT22;1249;51.270;6.756;2023-04-24T07:20:47;16.60;99.90
2477;DHT22;1249;51.270;6.756;2023-04-24T07:23:15;16.60;99.90
2477;DHT22;1249;51.270;6.756;2023-04-24T07:25:41;16.60;99.90
2477;DHT22;1249;51.270;6.756;2023-04-24T07:28:06;16.60;99.90
2477;DHT22;1249;51.270;6.756;2023-04-24T07:30:32;16.60;99.90
2477;DHT22;1249;51.270;6.756;2023-04-24T07:32:58;16.50;99.90
2477;DHT22;1249;51.270;6.756;2023-04-24T07:35:25;16.50;99.90
2477;DHT22;1249;51.270;6.756;2023-04-24T07:37:52;16.60;99.90
2477;DHT22;1249;51.270;6.756;2023-04-24T07:40:19;16.60;99.90
2477;DHT22;1249;51.270;6.756;2023-04-24T07:42:45;16.60;99.90
2477;DHT22;1249;51.270;6.756;2023-04-24T07:45:13;16.50;99.90
2477;DHT22;1249;51.270;6.756;2023-04-24T07:47:39;16.40;99.90
2477;DHT22;1249;51.270;6.756;2023-04-24T07:50:08;16.40;99.90
2477;DHT22;1249;51.270;6.756;2023-04-24T07:52:34;16.40;99.90
2477;DHT22;1249;51.270;6.756;2023-04-24T07:55:00;16.40;99.90
2477;DHT22;1249;51.270;6.756;2023-04-24T07:57:27;16.30;99.90
2477;DHT22;1249;51.270;6.756;2023-04-24T07:59:52;16.30;99.90
2477;DHT22;1249;51.270;6.756;2023-04-24T08:02:18;16.30;99.90
2477;DHT22;1249;51.270;6.756;2023-04-24T08:04:43;16.30;99.90
2477;DHT22;1249;51.270;6.756;2023-04-24T08:07:09;16.30;99.90
2477;DHT22;1249;51.270;6.756;2023-04-24T08:09:34;16.20;99.90
2477;DHT22;1249;51.270;6.756;2023-04-24T08:12:00;16.20;99.90
2477;DHT22;1249;51.270;6.756;2023-04-24T08:14:26;16.20;99.90
2477;DHT22;1249;51.270;6.756;2023-04-24T08:16:54;16.20;99.90
2477;DHT22;1249;51.270;6.756;2023-04-24T08:19:21;16.30;99.90
2477;DHT22;1249;51.270;6.756;2023-04-24T08:21:47;16.30;99.90
2477;DHT22;1249;51.270;6.756;2023-04-24T08:24:12;16.40;99.90
2477;DHT22;1249;51.270;6.756;2023-04-24T08:26:38;16.40;99.90
2477;DHT22;1249;51.270;6.756;2023-04-24T08:29:04;16.40;99.90
2477;DHT22;1249;51.270;6.756;2023-04-24T08:31:29;16.40;99.90
2477;DHT22;1249;51.270;6.756;2023-04-24T08:33:55;16.40;99.90
2477;DHT22;1249;51.270;6.756;2023-04-24T08:36:21;16.40;99.90
2477;DHT22;1249;51.270;6.756;2023-04-24T08:38:46;16.50;99.90
2477;DHT22;1249;51.270;6.756;2023-04-24T08:41:14;16.50;99.90
2477;DHT22;1249;51.270;6.756;2023-04-24T08:43:40;16.50;99.90
2477;DHT22;1249;51.270;6.756;2023-04-24T08:46:06;16.50;99.90
2477;DHT22;1249;51.270;6.756;2023-04-24T08:48:32;16.50;99.90
2477;DHT22;1249;51.270;6.756;2023-04-24T08:50:59;16.50;99.90
2477;DHT22;1249;51.270;6.756;2023-04-24T08:53:25;16.50;99.90
2477;DHT22;1249;51.270;6.756;2023-04-24T08:55:51;16.40;99.90
2477;DHT22;1249;51.270;6.756;2023-04-24T08:58:18;16.40;99.90
2477;DHT22;1249;51.270;6.756;2023-04-24T09:00:44;16.40;99.90
2477;DHT22;1249;51.270;6.756;2023-04-24T09:03:14;16.40;99.90
2477;DHT22;1249;51.270;6.756;2023-04-24T09:05:46;16.40;99.90
2477;DHT22;1249;51.270;6.756;2023-04-24T09:08:13;16.40;99.90
2477;DHT22;1249;51.270;6.756;2023-04-24T09:10:40;16.40;99.90
2477;DHT22;1249;51.270;6.756;2023-04-24T09:13:06;16.30;99.90
2477;DHT22;1249;51.270;6.756;2023-04-24T09:15:34;16.30;99.90
2477;DHT22;1249;51.270;6.756;2023-04-24T09:18:01;16.30;99.90
2477;DHT22;1249;51.270;6.756;2023-04-24T09:20:26;16.30;99.90
2477;DHT22;1249;51.270;6.756;2023-04-24T09:22:57;16.30;99.90
2477;DHT22;1249;51.270;6.756;2023-04-24T09:25:31;16.20;99.90
2477;DHT22;1249;51.270;6.756;2023-04-24T09:28:00;16.30;99.90
2477;DHT22;1249;51.270;6.756;2023-04-24T09:30:27;16.30;99.90
2477;DHT22;1249;51.270;6.756;2023-04-24T09:33:14;16.30;99.90
2477;DHT22;1249;51.270;6.756;2023-04-24T09:35:41;16.30;99.90
2477;DHT22;1249;51.270;6.756;2023-04-24T09:38:08;16.30;99.90
2477;DHT22;1249;51.270;6.756;2023-04-24T09:40:34;16.30;99.90
2477;DHT22;1249;51.270;6.756;2023-04-24T09:43:00;16.30;99.90
2477;DHT22;1249;51.270;6.756;2023-04-24T09:45:34;16.40;99.90
2477;DHT22;1249;51.270;6.756;2023-04-24T09:48:00;16.40;99.90
2477;DHT22;1249;51.270;6.756;2023-04-24T09:50:26;16.40;99.90
2477;DHT22;1249;51.270;6.756;2023-04-24T09:52:59;16.40;99.90
2477;DHT22;1249;51.270;6.756;2023-04-24T09:55:27;16.40;99.90
2477;DHT22;1249;51.270;6.756;2023-04-24T09:57:55;16.60;99.90
2477;DHT22;1249;51.270;6.756;2023-04-24T10:03:01;16.60;99.90
2477;DHT22;1249;51.270;6.756;2023-04-24T10:05:34;16.60;99.90
2477;DHT22;1249;51.270;6.756;2023-04-24T10:08:02;16.70;99.90
2477;DHT22;1249;51.270;6.756;2023-04-24T10:10:29;16.70;99.90
2477;DHT22;1249;51.270;6.756;2023-04-24T10:12:55;16.70;99.90
2477;DHT22;1249;51.270;6.756;2023-04-24T10:15:21;16.60;99.90
2477;DHT22;1249;51.270;6.756;2023-04-24T10:17:51;16.60;99.90
2477;DHT22;1249;51.270;6.756;2023-04-24T10:20:24;16.60;99.90
2477;DHT22;1249;51.270;6.756;2023-04-24T10:22:52;16.60;99.90
2477;DHT22;1249;51.270;6.756;2023-04-24T10:25:22;16.50;99.90
2477;DHT22;1249;51.270;6.756;2023-04-24T10:27:50;16.50;99.90
2477;DHT22;1249;51.270;6.756;2023-04-24T10:30:17;16.40;99.90
2477;DHT22;1249;51.270;6.756;2023-04-24T10:32:43;16.40;99.90
2477;DHT22;1249;51.270;6.756;2023-04-24T10:35:12;16.40;99.90
2477;DHT22;1249;51.270;6.756;2023-04-24T10:37:45;16.50;99.90
2477;DHT22;1249;51.270;6.756;2023-04-24T10:40:12;16.50;99.90
2477;DHT22;1249;51.270;6.756;2023-04-24T10:42:41;16.50;99.90
2477;DHT22;1249;51.270;6.756;2023-04-24T10:45:22;16.50;99.90
2477;DHT22;1249;51.270;6.756;2023-04-24T10:47:57;16.50;99.90
2477;DHT22;1249;51.270;6.756;2023-04-24T10:50:25;16.50;99.90
2477;DHT22;1249;51.270;6.756;2023-04-24T10:52:51;16.50;99.90
2477;DHT22;1249;51.270;6.756;2023-04-24T10:55:45;16.50;99.90
2477;DHT22;1249;51.270;6.756;2023-04-24T10:58:11;16.60;99.90
2477;DHT22;1249;51.270;6.756;2023-04-24T11:00:39;16.70;99.90
2477;DHT22;1249;51.270;6.756;2023-04-24T11:03:06;16.80;99.90
2477;DHT22;1249;51.270;6.756;2023-04-24T11:08:28;17.20;99.90
2477;DHT22;1249;51.270;6.756;2023-04-24T11:13:24;17.50;99.90
2477;DHT22;1249;51.270;6.756;2023-04-24T11:16:20;17.40;99.90
2477;DHT22;1249;51.270;6.756;2023-04-24T11:19:00;17.30;99.90
2477;DHT22;1249;51.270;6.756;2023-04-24T11:21:27;17.10;99.90
2477;DHT22;1249;51.270;6.756;2023-04-24T11:23:56;17.20;99.90
2477;DHT22;1249;51.270;6.756;2023-04-24T11:26:22;17.00;99.90
2477;DHT22;1249;51.270;6.756;2023-04-24T11:29:06;17.00;99.90
2477;DHT22;1249;51.270;6.756;2023-04-24T11:31:40;17.10;99.90
2477;DHT22;1249;51.270;6.756;2023-04-24T11:34:14;17.20;99.90
2477;DHT22;1249;51.270;6.756;2023-04-24T11:36:44;17.20;99.90
2477;DHT22;1249;51.270;6.756;2023-04-24T11:39:10;17.40;99.90
2477;DHT22;1249;51.270;6.756;2023-04-24T11:41:37;17.50;99.90
2477;DHT22;1249;51.270;6.756;2023-04-24T11:44:05;17.60;99.90
2477;DHT22;1249;51.270;6.756;2023-04-24T11:46:31;17.70;99.90
2477;DHT22;1249;51.270;6.756;2023-04-24T11:48:58;17.70;99.90
2477;DHT22;1249;51.270;6.756;2023-04-24T11:51:24;17.70;99.90
2477;DHT22;1249;51.270;6.756;2023-04-24T11:53:56;17.60;99.90
2477;DHT22;1249;51.270;6.756;2023-04-24T11:56:23;17.50;99.90
2477;DHT22;1249;51.270;6.756;2023-04-24T11:58:51;17.50;99.90
2477;DHT22;1249;51.270;6.756;2023-04-24T12:01:17;17.40;99.90
2477;DHT22;1249;51.270;6.756;2023-04-24T12:03:47;17.30;99.90
2477;DHT22;1249;51.270;6.756;2023-04-24T12:06:13;17.30;99.90
2477;DHT22;1249;51.270;6.756;2023-04-24T12:08:39;17.30;99.90
2477;DHT22;1249;51.270;6.756;2023-04-24T12:11:07;17.40;99.90
2477;DHT22;1249;51.270;6.756;2023-04-24T12:13:33;17.40;99.90
2477;DHT22;1249;51.270;6.756;2023-04-24T12:16:01;17.50;99.90
2477;DHT22;1249;51.270;6.756;2023-04-24T12:18:27;17.70;99.90
2477;DHT22;1249;51.270;6.756;2023-04-24T12:20:52;17.70;99.90
2477;DHT22;1249;51.270;6.756;2023-04-24T12:23:34;17.60;99.90
2477;DHT22;1249;51.270;6.756;2023-04-24T12:26:03;17.60;99.90
2477;DHT22;1249;51.270;6.756;2023-04-24T12:28:35;17.70;99.90
2477;DHT22;1249;51.270;6.756;2023-04-24T12:31:01;17.70;99.90
2477;DHT22;1249;51.270;6.756;2023-04-24T12:33:27;17.70;99.90
2477;DHT22;1249;51.270;6.756;2023-04-24T12:35:54;17.90;99.90
2477;DHT22;1249;51.270;6.756;2023-04-24T12:38:25;18.00;99.90
2477;DHT22;1249;51.270;6.756;2023-04-24T12:41:13;18.30;99.90
2477;DHT22;1249;51.270;6.756;2023-04-24T12:43:51;18.70;99.90
2477;DHT22;1249;51.270;6.756;2023-04-24T12:46:17;19.20;99.90
2477;DHT22;1249;51.270;6.756;2023-04-24T12:48:43;19.40;99.90
2477;DHT22;1249;51.270;6.756;2023-04-24T12:51:08;19.40;99.90
2477;DHT22;1249;51.270;6.756;2023-04-24T12:53:34;19.30;99.90
2477;DHT22;1249;51.270;6.756;2023-04-24T12:56:00;19.20;99.90
2477;DHT22;1249;51.270;6.756;2023-04-24T12:58:25;19.20;99.90
2477;DHT22;1249;51.270;6.756;2023-04-24T13:00:51;19.10;99.90
2477;DHT22;1249;51.270;6.756;2023-04-24T13:03:17;18.90;99.90
2477;DHT22;1249;51.270;6.756;2023-04-24T13:05:43;18.90;99.90
2477;DHT22;1249;51.270;6.756;2023-04-24T13:08:09;18.70;99.90
2477;DHT22;1249;51.270;6.756;2023-04-24T13:10:35;18.70;99.90
2477;DHT22;1249;51.270;6.756;2023-04-24T13:13:01;18.70;99.90
2477;DHT22;1249;51.270;6.756;2023-04-24T13:15:26;18.70;99.90
2477;DHT22;1249;51.270;6.756;2023-04-24T13:17:52;18.70;99.90
2477;DHT22;1249;51.270;6.756;2023-04-24T13:20:18;18.60;99.90
2477;DHT22;1249;51.270;6.756;2023-04-24T13:22:43;18.60;99.90
2477;DHT22;1249;51.270;6.756;2023-04-24T13:25:09;18.50;99.90
2477;DHT22;1249;51.270;6.756;2023-04-24T13:27:35;18.60;99.90
2477;DHT22;1249;51.270;6.756;2023-04-24T13:30:01;18.60;99.90
2477;DHT22;1249;51.270;6.756;2023-04-24T13:32:26;18.60;99.90
2477;DHT22;1249;51.270;6.756;2023-04-24T13:34:53;18.60;99.90
2477;DHT22;1249;51.270;6.756;2023-04-24T13:37:18;18.60;99.90
2477;DHT22;1249;51.270;6.756;2023-04-24T13:39:44;18.50;99.90
2477;DHT22;1249;51.270;6.756;2023-04-24T13:42:09;18.50;99.90
2477;DHT22;1249;51.270;6.756;2023-04-24T13:44:36;18.50;99.90
2477;DHT22;1249;51.270;6.756;2023-04-24T13:47:01;18.40;99.90
2477;DHT22;1249;51.270;6.756;2023-04-24T13:49:27;18.30;99.90
2477;DHT22;1249;51.270;6.756;2023-04-24T13:51:54;18.30;99.90
2477;DHT22;1249;51.270;6.756;2023-04-24T13:54:19;18.20;99.90
2477;DHT22;1249;51.270;6.756;2023-04-24T13:56:45;18.20;99.90
2477;DHT22;1249;51.270;6.756;2023-04-24T13:59:12;18.30;99.90
2477;DHT22;1249;51.270;6.756;2023-04-24T14:01:38;18.30;99.90
2477;DHT22;1249;51.270;6.756;2023-04-24T14:04:04;18.30;99.90
2477;DHT22;1249;51.270;6.756;2023-04-24T14:06:29;18.30;99.90
2477;DHT22;1249;51.270;6.756;2023-04-24T14:08:56;18.30;99.90
2477;DHT22;1249;51.270;6.756;2023-04-24T14:11:22;18.30;99.90
2477;DHT22;1249;51.270;6.756;2023-04-24T14:13:47;18.40;99.90
2477;DHT22;1249;51.270;6.756;2023-04-24T14:16:13;18.40;99.90
2477;DHT22;1249;51.270;6.756;2023-04-24T14:18:39;18.50;99.90
2477;DHT22;1249;51.270;6.756;2023-04-24T14:21:05;18.60;99.90
2477;DHT22;1249;51.270;6.756;2023-04-24T14:23:31;18.60;99.90
2477;DHT22;1249;51.270;6.756;2023-04-24T14:25:57;18.70;99.90
2477;DHT22;1249;51.270;6.756;2023-04-24T14:28:24;18.70;99.90
2477;DHT22;1249;51.270;6.756;2023-04-24T14:30:50;18.70;99.90
2477;DHT22;1249;51.270;6.756;2023-04-24T14:33:16;18.70;99.90
2477;DHT22;1249;51.270;6.756;2023-04-24T14:35:41;18.80;99.90
2477;DHT22;1249;51.270;6.756;2023-04-24T14:38:08;18.90;99.90
2477;DHT22;1249;51.270;6.756;2023-04-24T14:40:34;19.00;99.90
2477;DHT22;1249;51.270;6.756;2023-04-24T14:43:00;19.00;99.90
2477;DHT22;1249;51.270;6.756;2023-04-24T14:45:26;19.00;99.90
2477;DHT22;1249;51.270;6.756;2023-04-24T14:47:52;18.90;99.90
2477;DHT22;1249;51.270;6.756;2023-04-24T14:50:18;19.10;99.90
2477;DHT22;1249;51.270;6.756;2023-04-24T14:52:43;19.20;99.90
2477;DHT22;1249;51.270;6.756;2023-04-24T14:55:09;19.10;99.90
2477;DHT22;1249;51.270;6.756;2023-04-24T14:57:35;19.20;99.90
2477;DHT22;1249;51.270;6.756;2023-04-24T15:00:02;19.10;99.90
2477;DHT22;1249;51.270;6.756;2023-04-24T15:02:28;19.00;99.90
2477;DHT22;1249;51.270;6.756;2023-04-24T15:04:54;19.00;99.90
2477;DHT22;1249;51.270;6.756;2023-04-24T15:07:20;18.90;99.90
2477;DHT22;1249;51.270;6.756;2023-04-24T15:09:45;18.90;99.90
2477;DHT22;1249;51.270;6.756;2023-04-24T15:12:12;19.10;99.70
2477;DHT22;1249;51.270;6.756;2023-04-24T15:14:38;19.40;97.80
2477;DHT22;1249;51.270;6.756;2023-04-24T15:17:03;19.40;96.80
2477;DHT22;1249;51.270;6.756;2023-04-24T15:19:29;19.40;96.30
2477;DHT22;1249;51.270;6.756;2023-04-24T15:21:55;19.30;95.70
2477;DHT22;1249;51.270;6.756;2023-04-24T15:24:20;19.50;94.90
2477;DHT22;1249;51.270;6.756;2023-04-24T15:26:46;19.50;93.80
2477;DHT22;1249;51.270;6.756;2023-04-24T15:29:11;19.40;92.80
2477;DHT22;1249;51.270;6.756;2023-04-24T15:31:37;19.40;92.80
2477;DHT22;1249;51.270;6.756;2023-04-24T15:34:05;19.70;92.00
2477;DHT22;1249;51.270;6.756;2023-04-24T15:36:31;19.70;91.40
2477;DHT22;1249;51.270;6.756;2023-04-24T15:38:57;19.50;91.90
2477;DHT22;1249;51.270;6.756;2023-04-24T15:41:23;19.30;92.50
2477;DHT22;1249;51.270;6.756;2023-04-24T15:43:48;19.20;92.40
2477;DHT22;1249;51.270;6.756;2023-04-24T15:46:17;19.00;92.40
2477;DHT22;1249;51.270;6.756;2023-04-24T15:48:42;18.90;92.30
2477;DHT22;1249;51.270;6.756;2023-04-24T15:51:08;18.70;92.60
2477;DHT22;1249;51.270;6.756;2023-04-24T15:53:34;18.50;92.00
2477;DHT22;1249;51.270;6.756;2023-04-24T15:55:59;18.50;92.90
2477;DHT22;1249;51.270;6.756;2023-04-24T15:58:25;18.50;93.00
2477;DHT22;1249;51.270;6.756;2023-04-24T16:00:51;18.30;93.00
2477;DHT22;1249;51.270;6.756;2023-04-24T16:03:18;18.30;93.10
2477;DHT22;1249;51.270;6.756;2023-04-24T16:05:44;18.30;93.40
2477;DHT22;1249;51.270;6.756;2023-04-24T16:08:09;18.30;93.80